Time;durP1;ratioP1;P1;durP2;ratioP2;P2;SDS_P1;SDS_P2;PMS_P1;PMS_P2;Temp;Humidity;BMP_temperature;BMP_pressure;BME280_temperature;BME280_humidity;BME280_pressure;Samples;Min_cycle;Max_cycle;Signal;HPM_P1;HPM_P2
2022/06/23 00:02:04;;;;;;;8.50;2.47;;;14.80;99.90;14.80;97960.00;;;;4981064;28;86974;-60
2022/06/23 00:04:40;;;;;;;3.50;1.70;;;14.80;99.90;14.80;97953.00;;;;4983372;28;86946;-60
2022/06/23 00:07:26;;;;;;;4.45;1.73;;;14.80;99.90;14.80;97962.00;;;;4983315;28;87593;-55
2022/06/23 00:09:59;;;;;;;4.63;1.80;;;14.80;99.90;14.70;97964.00;;;;4983083;28;86921;-56
2022/06/23 00:12:39;;;;;;;4.25;1.77;;;14.70;99.90;14.60;97968.00;;;;4982297;28;87374;-54
2022/06/23 00:15:05;;;;;;;4.82;1.60;;;14.60;99.90;14.50;97957.00;;;;4982638;28;87728;-55
2022/06/23 00:17:35;;;;;;;3.75;1.70;;;14.60;99.90;14.50;97962.00;;;;4983160;28;87295;-54
2022/06/23 00:20:29;;;;;;;11.30;1.90;;;14.60;99.90;14.40;97963.00;;;;4982444;28;87041;-55
2022/06/23 00:23:12;;;;;;;5.03;1.70;;;14.50;99.90;14.40;97962.00;;;;4956776;28;87634;-56
2022/06/23 00:25:57;;;;;;;4.38;2.15;;;14.50;99.90;14.40;97971.00;;;;4980843;28;88600;-54
2022/06/23 00:28:35;;;;;;;7.13;1.67;;;14.40;99.90;14.30;97960.00;;;;4981117;28;88265;-54
2022/06/23 00:31:19;;;;;;;5.78;2.00;;;14.40;99.90;14.30;97961.00;;;;4965095;28;87056;-56
2022/06/23 00:33:45;;;;;;;5.13;1.98;;;14.30;99.90;14.20;97976.00;;;;4980640;28;86997;-52
2022/06/23 00:36:27;;;;;;;6.78;2.00;;;14.30;99.90;14.20;97974.00;;;;4982417;28;87371;-56
2022/06/23 00:38:54;;;;;;;6.72;1.75;;;14.30;99.90;14.10;97974.00;;;;4982032;28;87291;-53
2022/06/23 00:41:26;;;;;;;7.47;3.00;;;14.20;99.90;14.10;97979.00;;;;4982491;28;87066;-56
2022/06/23 00:43:53;;;;;;;7.13;1.90;;;14.20;99.90;14.10;97979.00;;;;4980744;28;86339;-54
2022/06/23 00:46:47;;;;;;;4.57;1.92;;;14.20;99.90;14.20;97981.00;;;;4982052;28;88074;-55
2022/06/23 00:49:29;;;;;;;4.93;1.85;;;14.20;99.90;14.20;97982.00;;;;4981260;28;87260;-50
2022/06/23 00:52:09;;;;;;;6.18;1.90;;;14.20;99.90;14.30;97984.00;;;;4961564;28;88233;-51
2022/06/23 00:54:42;;;;;;;8.35;1.95;;;14.30;99.90;14.30;97982.00;;;;4965471;28;87477;-54
2022/06/23 00:57:33;;;;;;;7.50;2.08;;;14.30;99.90;14.30;97979.00;;;;4961361;28;87741;-57
2022/06/23 01:00:20;;;;;;;3.22;2.00;;;14.30;99.90;14.20;97980.00;;;;4981660;28;87310;-55
2022/06/23 01:03:13;;;;;;;3.65;2.20;;;14.20;99.90;14.30;97976.00;;;;4979125;28;86989;-54
2022/06/23 01:05:50;;;;;;;4.18;2.10;;;14.30;99.90;14.30;97987.00;;;;4976807;28;87093;-55
2022/06/23 01:08:28;;;;;;;4.82;2.10;;;14.30;99.90;14.30;97976.00;;;;4982007;28;88435;-55
2022/06/23 01:11:29;;;;;;;10.73;2.63;;;14.30;99.90;14.20;97985.00;;;;4965499;28;87496;-53
2022/06/23 01:14:11;;;;;;;4.65;2.00;;;14.30;99.90;14.20;97992.00;;;;4981904;28;88059;-55
2022/06/23 01:16:48;;;;;;;4.25;1.90;;;14.30;99.90;14.20;97991.00;;;;4982142;28;87906;-56
2022/06/23 01:19:37;;;;;;;6.97;2.10;;;14.20;99.90;14.20;97996.00;;;;4963589;28;89820;-53
2022/06/23 01:22:17;;;;;;;3.20;1.67;;;14.20;99.90;14.20;98001.00;;;;4980629;28;87128;-52
2022/06/23 01:25:35;;;;;;;5.18;2.00;;;14.20;99.90;14.10;98009.00;;;;4930930;28;87070;-53
2022/06/23 01:28:19;;;;;;;4.03;1.98;;;14.20;99.90;14.20;98012.00;;;;4960128;28;87071;-55
2022/06/23 01:31:03;;;;;;;6.25;2.10;;;14.20;99.90;14.20;98010.00;;;;4980801;28;87033;-55
2022/06/23 01:33:57;;;;;;;4.95;2.13;;;14.30;99.90;14.30;98008.00;;;;4980219;28;87394;-56
2022/06/23 01:36:51;;;;;;;3.95;2.17;;;14.30;99.90;14.30;98009.00;;;;4978550;28;86962;-55
2022/06/23 01:39:49;;;;;;;4.25;1.90;;;14.30;99.90;14.30;98009.00;;;;4938354;28;86460;-54
2022/06/23 01:42:23;;;;;;;4.80;2.08;;;14.40;99.90;14.40;98014.00;;;;4964573;28;87503;-54
2022/06/23 01:45:51;;;;;;;3.35;1.85;;;14.40;99.90;14.40;98016.00;;;;4963913;28;87305;-54
2022/06/23 01:48:52;;;;;;;4.03;1.60;;;14.40;99.90;14.40;98011.00;;;;4937378;28;88499;-55
2022/06/23 01:51:41;;;;;;;3.13;1.90;;;14.40;99.90;14.50;98023.00;;;;4981684;28;86940;-56
2022/06/23 01:54:20;;;;;;;6.05;1.90;;;14.50;99.90;15.00;98010.00;;;;4981498;28;87876;-54
2022/06/23 01:56:57;;;;;;;7.35;2.00;;;14.90;99.90;15.90;98015.00;;;;4981070;28;87333;-53
2022/06/23 01:59:45;;;;;;;5.15;1.83;;;15.70;99.90;16.80;98028.00;;;;4981896;28;87318;-53
2022/06/23 02:02:11;;;;;;;5.90;2.20;;;16.50;99.90;17.30;98035.00;;;;4981821;28;87118;-54
2022/06/23 02:05:30;;;;;;;3.63;1.80;;;17.00;99.90;17.90;98029.00;;;;4981586;28;87667;-54
2022/06/23 02:08:26;;;;;;;8.07;1.80;;;17.50;99.90;18.50;98033.00;;;;4950417;28;87445;-52
2022/06/23 02:11:14;;;;;;;5.35;2.17;;;18.00;99.90;18.80;98032.00;;;;4981808;28;87876;-53
2022/06/23 02:14:06;;;;;;;4.47;1.90;;;18.30;99.90;19.40;98031.00;;;;4979918;28;87075;-55
2022/06/23 02:16:59;;;;;;;4.80;1.88;;;18.80;99.90;19.70;98036.00;;;;4964041;28;89146;-55
2022/06/23 02:19:31;;;;;;;5.32;1.70;;;19.20;99.90;20.10;98048.00;;;;4981602;28;88109;-52
2022/06/23 02:22:21;;;;;;;6.13;2.00;;;19.60;99.90;19.90;98051.00;;;;4965018;28;87556;-54
2022/06/23 02:25:06;;;;;;;4.35;1.58;;;19.50;99.90;20.30;98054.00;;;;4972187;28;87642;-53
2022/06/23 02:27:56;;;;;;;3.85;1.77;;;19.80;99.90;20.60;98052.00;;;;4976233;28;88168;-51
2022/06/23 02:30:35;;;;;;;4.22;1.75;;;20.10;99.90;20.60;98050.00;;;;4963588;28;87585;-54
2022/06/23 02:33:26;;;;;;;8.15;1.73;;;20.10;99.90;20.60;98065.00;;;;4947600;28;86974;-55
2022/06/23 02:36:01;;;;;;;5.25;1.80;;;20.00;99.90;20.80;98062.00;;;;4980588;28;86255;-56
2022/06/23 02:38:45;;;;;;;2.92;1.88;;;20.30;99.90;21.20;98066.00;;;;4979990;28;87551;-55
2022/06/23 02:41:39;;;;;;;8.38;1.77;;;20.80;99.90;21.40;98073.00;;;;4947859;28;88339;-53
2022/06/23 02:44:35;;;;;;;4.72;2.28;;;20.90;99.90;21.40;98071.00;;;;4975964;28;88308;-56
2022/06/23 02:47:20;;;;;;;3.47;1.90;;;20.90;99.90;21.10;98091.00;;;;4980277;28;87106;-56
2022/06/23 02:49:46;;;;;;;4.20;1.80;;;20.70;99.90;20.90;98061.00;;;;4973601;28;88411;-56
2022/06/23 02:52:49;;;;;;;4.88;2.25;;;20.50;99.90;21.00;98076.00;;;;4980020;28;87390;-57
2022/06/23 02:55:43;;;;;;;4.63;1.70;;;20.60;99.90;21.40;98083.00;;;;4963196;28;88248;-54
2022/06/23 02:58:23;;;;;;;4.85;1.60;;;20.90;99.90;20.80;98073.00;;;;4978952;28;87463;-56
2022/06/23 03:01:29;;;;;;;3.42;1.60;;;20.30;99.90;21.00;98093.00;;;;4980701;28;87695;-56
2022/06/23 03:04:06;;;;;;;7.97;2.53;;;20.50;99.90;21.00;98088.00;;;;4980410;28;87593;-56
2022/06/23 03:06:48;;;;;;;6.95;1.67;;;20.50;99.90;21.40;98089.00;;;;4980931;28;86925;-54
2022/06/23 03:09:38;;;;;;;5.78;1.48;;;20.80;99.90;21.40;98098.00;;;;4963666;28;87944;-55
2022/06/23 03:12:27;;;;;;;6.30;1.67;;;20.80;99.90;21.20;98101.00;;;;4978194;28;88500;-53
2022/06/23 03:15:23;;;;;;;2.85;1.60;;;20.90;99.90;21.20;98095.00;;;;4980061;28;88342;-54
2022/06/23 03:18:09;;;;;;;2.35;1.45;;;20.80;99.90;21.10;98097.00;;;;4968002;28;87086;-53
2022/06/23 03:20:49;;;;;;;7.35;1.70;;;20.60;99.90;21.20;98095.00;;;;4980656;28;86971;-56
2022/06/23 03:23:28;;;;;;;6.68;1.60;;;20.70;99.90;21.40;98105.00;;;;4983725;28;87718;-52
2022/06/23 03:26:20;;;;;;;3.63;1.63;;;20.90;99.90;21.40;98114.00;;;;4982480;28;88155;-56
2022/06/23 03:29:16;;;;;;;4.95;1.73;;;20.90;99.90;21.70;98115.00;;;;4983743;28;86940;-56
2022/06/23 03:32:06;;;;;;;5.78;2.28;;;21.30;99.90;21.60;98115.00;;;;4967217;28;86325;-56
2022/06/23 03:34:44;;;;;;;5.50;1.80;;;21.20;99.90;21.60;98127.00;;;;4981546;28;87741;-56
2022/06/23 03:37:47;;;;;;;3.70;1.60;;;21.10;99.90;21.50;98124.00;;;;4984217;28;87307;-56
2022/06/23 03:43:20;;;;;;;;;;;21.40;99.90;21.70;98140.00;;;;4969198;28;87209;-56
2022/06/23 03:46:18;;;;;;;5.00;1.52;;;21.00;99.90;21.70;98130.00;;;;4967066;28;87704;-56
2022/06/23 03:48:49;;;;;;;5.30;1.73;;;21.10;99.90;20.40;98142.00;;;;4983809;28;87395;-55
2022/06/23 03:51:23;;;;;;;4.30;1.77;;;20.10;99.90;21.20;98136.00;;;;4983485;28;87126;-56
2022/06/23 03:54:03;;;;;;;2.47;1.83;;;20.70;99.90;21.20;98136.00;;;;4983289;28;86960;-57
2022/06/23 03:56:45;;;;;;;2.13;1.50;;;20.70;99.90;21.60;98137.00;;;;4983862;28;87732;-56
2022/06/23 03:59:21;;;;;;;5.28;1.70;;;20.90;99.90;22.00;98147.00;;;;4966293;28;88394;-57
2022/06/23 04:02:05;;;;;;;1.83;1.27;;;21.40;99.90;21.90;98128.00;;;;4983499;28;87033;-56
2022/06/23 04:05:00;;;;;;;5.57;1.50;;;21.30;99.90;21.60;98140.00;;;;4965923;28;86989;-58
2022/06/23 04:07:29;;;;;;;2.30;1.40;;;21.20;99.90;21.90;98145.00;;;;4965703;28;88745;-58
2022/06/23 04:10:13;;;;;;;7.18;1.65;;;21.40;99.90;21.50;98140.00;;;;4983076;28;88222;-59
2022/06/23 04:12:51;;;;;;;4.35;1.95;;;20.90;99.90;21.80;98152.00;;;;4978714;28;86996;-60
2022/06/23 04:15:38;;;;;;;7.82;2.03;;;21.30;99.90;22.20;98155.00;;;;4965957;28;86936;-58
2022/06/23 04:18:15;;;;;;;5.03;1.67;;;21.50;99.90;22.10;98147.00;;;;4983208;28;87561;-58
2022/06/23 04:20:49;;;;;;;3.72;1.70;;;21.60;99.90;22.00;98146.00;;;;4982634;28;87430;-60
2022/06/23 04:23:26;;;;;;;3.10;1.73;;;21.70;99.90;21.90;98155.00;;;;4965520;28;87206;-59
2022/06/23 04:26:12;;;;;;;3.88;1.30;;;21.40;99.90;22.10;98154.00;;;;4978969;28;86298;-59
2022/06/23 04:29:17;;;;;;;6.53;1.85;;;21.50;99.90;22.40;98163.00;;;;4980638;28;87624;-60
2022/06/23 04:31:51;;;;;;;6.30;1.50;;;21.90;99.90;21.80;98173.00;;;;4964470;28;87558;-59
2022/06/23 04:34:27;;;;;;;7.45;1.60;;;21.30;99.90;21.80;98164.00;;;;4964956;28;88514;-59
2022/06/23 04:36:53;;;;;;;4.88;1.50;;;21.30;99.90;22.00;98164.00;;;;4983315;28;86972;-60
2022/06/23 04:39:43;;;;;;;5.13;1.52;;;21.40;99.90;22.10;98174.00;;;;4964994;28;87804;-59
2022/06/23 04:42:27;;;;;;;3.45;1.38;;;21.60;99.90;21.90;98158.00;;;;4975122;28;87512;-57
2022/06/23 04:45:35;;;;;;;4.47;1.60;;;21.50;99.90;21.90;98168.00;;;;4982356;28;87120;-59
2022/06/23 04:48:12;;;;;;;2.80;1.70;;;21.30;99.90;21.90;98172.00;;;;4977830;28;87736;-60
2022/06/23 04:51:16;;;;;;;2.72;1.50;;;21.40;99.90;21.90;98177.00;;;;4974304;28;88460;-60
2022/06/23 04:54:10;;;;;;;2.85;1.50;;;21.70;99.90;22.30;98184.00;;;;4973349;28;88193;-59
2022/06/23 04:56:49;;;;;;;4.10;1.60;;;21.80;99.90;22.80;98174.00;;;;4980736;28;86965;-60
2022/06/23 04:59:30;;;;;;;2.83;1.42;;;22.30;99.90;23.10;98187.00;;;;4964614;28;87101;-60
2022/06/23 05:02:02;;;;;;;7.75;1.50;;;22.40;99.90;23.20;98183.00;;;;4981222;28;88557;-59
2022/06/23 05:04:42;;;;;;;4.03;1.48;;;22.50;99.90;23.40;98184.00;;;;4963754;28;89574;-59
2022/06/23 05:07:48;;;;;;;6.43;1.70;;;22.60;99.90;22.90;98185.00;;;;4973399;28;87023;-59
2022/06/23 05:10:31;;;;;;;3.88;1.33;;;22.30;99.90;23.30;98179.00;;;;4950957;28;86964;-59
2022/06/23 05:13:12;;;;;;;3.70;1.52;;;22.50;99.90;23.00;98177.00;;;;4981608;28;87835;-59
2022/06/23 05:16:15;;;;;;;;;;;22.20;99.90;22.90;98186.00;;;;4981154;28;88301;-59
2022/06/23 05:18:50;;;;;;;2.60;1.55;;;22.30;99.90;23.20;98191.00;;;;4980423;28;87033;-59
2022/06/23 05:21:51;;;;;;;5.55;1.70;;;22.50;99.90;22.60;98198.00;;;;4965304;28;86256;-59
2022/06/23 05:24:34;;;;;;;10.63;1.80;;;22.00;99.90;22.90;98171.00;;;;4975612;28;88034;-59
2022/06/23 05:27:05;;;;;;;2.53;1.30;;;22.30;99.90;22.40;98186.00;;;;4972262;28;87885;-59
2022/06/23 05:29:31;;;;;;;2.08;1.13;;;21.90;99.20;22.90;98188.00;;;;4968058;28;88293;-58
2022/06/23 05:32:14;;;;;;;3.65;1.48;;;22.40;98.50;22.90;98205.00;;;;4982290;28;86895;-59
2022/06/23 05:35:00;;;;;;;3.58;1.30;;;22.70;99.90;23.30;98214.00;;;;4977458;28;87822;-59
2022/06/23 05:37:37;;;;;;;3.50;1.30;;;22.50;99.90;22.70;98189.00;;;;4996260;28;87348;-59
2022/06/23 05:40:35;;;;;;;4.18;1.45;;;22.60;99.90;23.30;98194.00;;;;4981325;28;87313;-59
2022/06/23 05:43:03;;;;;;;2.53;1.13;;;23.20;99.20;23.70;98209.00;;;;4954075;28;87146;-58
2022/06/23 05:45:55;;;;;;;6.95;1.20;;;22.70;98.80;23.20;98191.00;;;;4988528;28;87768;-59
2022/06/23 05:48:39;;;;;;;2.25;1.20;;;22.70;98.80;23.30;98205.00;;;;4960995;28;87312;-59
2022/06/23 05:51:20;;;;;;;4.28;1.35;;;21.80;97.00;22.20;98216.00;;;;4963824;28;87034;-59
2022/06/23 05:54:10;;;;;;;;;;;21.80;99.60;21.80;98230.00;;;;4985750;28;87078;-59
2022/06/23 05:56:59;;;;;;;3.83;1.05;;;;;22.30;98207.00;;;;4969922;28;88700;-58
2022/06/23 05:59:45;;;;;;;2.00;1.10;;;21.80;96.90;22.40;98211.00;;;;4971336;28;88457;-58
2022/06/23 06:02:23;;;;;;;4.53;1.20;;;21.30;98.60;21.60;98225.00;;;;4979044;28;87162;-59
2022/06/23 06:04:53;;;;;;;4.07;1.02;;;21.70;96.80;22.30;98217.00;;;;4978933;28;87617;-58
2022/06/23 06:07:25;;;;;;;2.90;1.42;;;22.10;99.20;22.60;98232.00;;;;4962426;28;88101;-58
2022/06/23 06:09:53;;;;;;;4.53;1.40;;;22.10;99.40;22.70;98210.00;;;;4961699;28;87758;-58
2022/06/23 06:12:33;;;;;;;3.30;1.20;;;22.20;99.10;22.70;98210.00;;;;4978437;28;87396;-60
2022/06/23 06:15:28;;;;;;;4.65;1.48;;;22.20;97.20;22.60;98207.00;;;;4976607;28;86237;-59
2022/06/23 06:18:21;;;;;;;4.45;1.35;;;22.20;99.50;22.10;98218.00;;;;4961731;28;87594;-60
2022/06/23 06:20:47;;;;;;;2.83;1.30;;;21.80;99.50;22.00;98238.00;;;;4966735;28;87435;-60
2022/06/23 06:23:44;;;;;;;5.25;1.40;;;21.60;99.90;22.10;98221.00;;;;4979952;28;88508;-60
2022/06/23 06:26:19;;;;;;;5.65;1.42;;;21.10;97.50;21.20;98238.00;;;;4971164;28;87148;-59
2022/06/23 06:28:45;;;;;;;2.83;1.20;;;;;21.10;98227.00;;;;4962350;28;88519;-58
2022/06/23 06:31:33;;;;;;;6.65;1.20;;;20.90;98.70;21.40;98231.00;;;;4980166;28;87148;-59
2022/06/23 06:34:11;;;;;;;3.78;1.50;;;20.80;98.60;21.10;98233.00;;;;4971801;28;87226;-59
2022/06/23 06:36:45;;;;;;;6.85;1.33;;;20.50;99.90;20.60;98239.00;;;;4973850;28;87129;-59
2022/06/23 06:39:33;;;;;;;7.55;1.60;;;20.00;99.00;19.90;98234.00;;;;4979689;28;87717;-59
2022/06/23 06:42:09;;;;;;;7.15;1.40;;;19.80;99.90;19.90;98219.00;;;;4979046;28;87410;-59
2022/06/23 06:44:42;;;;;;;1.80;1.30;;;19.80;99.90;19.90;98236.00;;;;4979886;28;87097;-59
2022/06/23 06:47:24;;;;;;;3.25;1.45;;;20.00;99.90;20.00;98228.00;;;;4980250;28;87007;-58
2022/06/23 06:49:53;;;;;;;3.60;1.80;;;20.10;99.90;20.20;98228.00;;;;4979782;28;89161;-59
2022/06/23 06:52:20;;;;;;;6.97;1.38;;;;;20.20;98228.00;;;;4970057;28;87466;-59
2022/06/23 06:54:59;;;;;;;3.75;1.25;;;20.30;99.00;20.30;98212.00;;;;4980258;28;87415;-58
2022/06/23 06:57:48;;;;;;;4.28;1.13;;;20.40;98.80;20.40;98224.00;;;;4980154;28;87112;-59
2022/06/23 07:00:57;;;;;;;2.28;1.10;;;20.30;98.40;20.40;98225.00;;;;4982566;28;87691;-59
2022/06/23 07:03:26;;;;;;;4.70;1.17;;;20.50;99.90;20.40;98247.00;;;;4975630;28;88366;-59
2022/06/23 07:06:09;;;;;;;5.82;1.30;;;20.40;99.90;20.30;98243.00;;;;4966199;28;87116;-59
2022/06/23 07:09:27;;;;;;;6.43;1.70;;;20.10;99.90;20.00;98245.00;;;;4975902;28;86228;-58
2022/06/23 07:12:09;;;;;;;10.45;2.30;;;20.30;99.90;20.30;98229.00;;;;4980463;28;87643;-58
2022/06/23 07:14:50;;;;;;;6.15;1.45;;;20.40;99.90;20.30;98225.00;;;;4983327;28;87371;-59
2022/06/23 07:17:29;;;;;;;2.33;1.30;;;20.40;98.60;20.50;98246.00;;;;4983221;28;87995;-61
2022/06/23 07:20:04;;;;;;;2.67;1.15;;;20.50;98.00;20.50;98236.00;;;;4983226;28;87317;-61
2022/06/23 07:22:37;;;;;;;2.88;1.20;;;20.60;99.50;20.60;98234.00;;;;4966009;28;87846;-55
2022/06/23 07:25:17;;;;;;;6.43;1.55;;;20.70;99.60;20.70;98237.00;;;;4978294;28;87524;-57
2022/06/23 07:27:46;;;;;;;3.80;1.40;;;;;20.70;98265.00;;;;4978561;28;87074;-57
2022/06/23 07:30:40;;;;;;;5.72;1.45;;;20.70;97.10;20.70;98242.00;;;;4983236;28;86972;-55
2022/06/23 07:33:35;;;;;;;1.90;1.20;;;20.80;99.00;20.80;98241.00;;;;4966007;28;87097;-55
2022/06/23 07:36:04;;;;;;;3.40;1.15;;;;;20.80;98239.00;;;;4982552;28;88012;-57
2022/06/23 07:38:47;;;;;;;5.45;1.75;;;20.70;96.30;20.70;98257.00;;;;4966549;28;87221;-54
2022/06/23 07:41:21;;;;;;;2.95;1.10;;;20.70;98.40;20.70;98240.00;;;;4982019;28;87011;-56
2022/06/23 07:44:08;;;;;;;5.30;1.50;;;20.70;96.60;20.80;98231.00;;;;4977393;28;88609;-52
2022/06/23 07:46:37;;;;;;;3.58;1.35;;;20.80;96.90;20.90;98244.00;;;;4965573;28;88376;-57
2022/06/23 07:49:05;;;;;;;4.82;1.10;;;20.90;97.20;21.00;98252.00;;;;4954203;28;87065;-57
2022/06/23 07:51:32;;;;;;;3.05;1.30;;;;;21.00;98263.00;;;;4982585;28;87067;-57
2022/06/23 07:53:58;;;;;;;2.95;1.10;;;21.00;97.10;21.00;98256.00;;;;4982179;28;87626;-56
2022/06/23 07:56:30;;;;;;;1.65;1.20;;;20.90;96.50;21.00;98265.00;;;;4983338;28;87156;-56
2022/06/23 07:59:02;;;;;;;1.58;1.20;;;20.70;96.20;20.80;98250.00;;;;4954441;28;87296;-57
2022/06/23 08:01:54;;;;;;;5.20;1.50;;;20.90;96.10;21.00;98257.00;;;;4983630;28;86324;-56
2022/06/23 08:05:23;;;;;;;2.10;1.30;;;20.80;97.70;20.90;98282.00;;;;4957783;28;87905;-56
2022/06/23 08:07:50;;;;;;;4.80;1.73;;;;;20.80;98257.00;;;;4978648;28;87915;-56
2022/06/23 08:10:26;;;;;;;3.92;1.38;;;20.80;97.00;20.90;98255.00;;;;4965940;28;87944;-54
2022/06/23 08:13:03;;;;;;;3.22;1.50;;;20.90;98.30;21.00;98267.00;;;;4965580;28;87696;-56
2022/06/23 08:18:46;;;;;;;5.00;1.40;;;20.90;97.90;21.10;98274.00;;;;4954822;28;87309;-56
2022/06/23 08:21:27;;;;;;;5.55;1.30;;;21.10;96.00;21.10;98244.00;;;;4968740;28;87043;-57
2022/06/23 08:24:07;;;;;;;3.43;1.53;;;21.10;98.30;21.20;98257.00;;;;4982190;28;87437;-55
2022/06/23 08:26:37;;;;;;;2.85;1.40;;;20.80;98.40;20.90;98284.00;;;;4964099;28;87891;-55
2022/06/23 08:29:07;;;;;;;4.07;1.55;;;20.80;97.90;20.90;98260.00;;;;4970599;28;87290;-55
2022/06/23 08:31:34;;;;;;;5.03;1.70;;;20.90;98.60;21.00;98270.00;;;;4982465;28;87553;-55
2022/06/23 08:34:02;;;;;;;3.47;1.50;;;21.00;97.20;21.20;98260.00;;;;4982177;28;87123;-55
2022/06/23 08:36:46;;;;;;;7.15;1.42;;;21.30;98.10;21.40;98282.00;;;;4981663;28;88608;-56
2022/06/23 08:39:23;;;;;;;6.95;1.58;;;21.30;97.40;21.30;98290.00;;;;4964644;28;89548;-55
2022/06/23 08:41:51;;;;;;;5.90;1.20;;;;;21.30;98265.00;;;;4974476;28;87026;-54
2022/06/23 08:45:01;;;;;;;5.15;1.80;;;21.40;95.70;21.50;98278.00;;;;4965204;28;87372;-52
2022/06/23 08:47:57;;;;;;;4.10;1.50;;;21.30;96.80;21.40;98266.00;;;;4960058;28;87658;-55
2022/06/23 08:51:01;;;;;;;5.85;1.38;;;21.30;95.20;21.40;98273.00;;;;4965205;28;87490;-56
2022/06/23 08:53:29;;;;;;;6.57;1.25;;;;;21.50;98271.00;;;;4964428;28;87107;-53
2022/06/23 08:56:17;;;;;;;4.53;1.25;;;21.40;96.20;21.50;98283.00;;;;4965677;28;86510;-55
2022/06/23 08:59:35;;;;;;;2.63;1.50;;;21.40;96.40;21.60;98268.00;;;;4982448;28;87542;-56
2022/06/23 09:02:19;;;;;;;4.18;1.23;;;21.60;95.40;21.70;98288.00;;;;4965088;28;88481;-54
2022/06/23 09:04:59;;;;;;;5.40;1.60;;;21.70;96.00;21.70;98295.00;;;;4976729;28;87917;-54
2022/06/23 09:07:40;;;;;;;4.60;1.25;;;21.70;95.50;21.80;98300.00;;;;4982830;28;87185;-54
2022/06/23 09:10:34;;;;;;;4.25;1.10;;;21.70;96.30;21.80;98280.00;;;;4982478;28;88794;-52
2022/06/23 09:13:07;;;;;;;5.20;1.55;;;21.80;95.00;21.90;98272.00;;;;4970765;28;87589;-58
2022/06/23 09:15:48;;;;;;;3.47;1.40;;;21.90;96.20;22.10;98267.00;;;;4981139;28;87404;-57
2022/06/23 09:18:34;;;;;;;6.40;1.40;;;22.00;94.00;22.20;98294.00;;;;4979530;28;87297;-57
2022/06/23 09:21:47;;;;;;;6.72;1.40;;;22.00;94.00;22.20;98299.00;;;;4964625;28;87759;-55
2022/06/23 09:24:56;;;;;;;3.13;1.20;;;22.00;95.70;22.10;98288.00;;;;4978858;28;88229;-57
2022/06/23 09:27:59;;;;;;;4.60;1.30;;;22.10;95.90;22.20;98304.00;;;;4956907;28;87578;-51
2022/06/23 09:30:51;;;;;;;2.40;1.50;;;22.00;95.60;22.20;98294.00;;;;4980788;28;87203;-53
2022/06/23 09:33:39;;;;;;;4.90;1.70;;;22.10;93.60;22.20;98295.00;;;;4980956;28;88709;-56
2022/06/23 09:36:44;;;;;;;4.30;1.60;;;21.90;93.20;22.00;98319.00;;;;4979216;28;88221;-54
2022/06/23 09:39:42;;;;;;;2.63;1.30;;;21.80;94.20;22.00;98307.00;;;;4981923;28;86956;-58
2022/06/23 09:42:59;;;;;;;2.63;1.33;;;22.00;94.90;22.10;98307.00;;;;4973877;28;87486;-57
2022/06/23 09:46:13;;;;;;;3.95;1.65;;;21.90;94.00;22.10;98303.00;;;;4969765;28;87665;-57
2022/06/23 09:49:26;;;;;;;5.78;1.77;;;21.90;93.80;22.00;98322.00;;;;4981585;28;88398;-56
2022/06/23 09:52:18;;;;;;;5.53;1.50;;;21.70;95.70;21.80;98317.00;;;;4892593;28;87400;-57
2022/06/23 09:54:50;;;;;;;2.25;1.40;;;;;22.00;98316.00;;;;4890147;28;86738;-54
2022/06/23 09:57:37;;;;;;;4.53;1.65;;;21.60;95.10;21.90;98326.00;;;;4961652;28;87528;-54
2022/06/23 10:00:38;;;;;;;3.83;1.58;;;21.70;96.60;22.00;98307.00;;;;4981989;28;87675;-56
2022/06/23 10:03:45;;;;;;;4.68;1.48;;;21.90;96.40;22.10;98324.00;;;;4980270;28;87941;-57
2022/06/23 10:06:16;;;;;;;3.90;1.48;;;;;22.20;98324.00;;;;4981747;28;86942;-56
2022/06/23 10:09:16;;;;;;;5.78;1.40;;;22.00;93.70;22.20;98318.00;;;;4964294;28;87745;-55
2022/06/23 10:12:24;;;;;;;2.78;1.50;;;22.10;93.40;22.20;98310.00;;;;4977677;28;87380;-56
2022/06/23 10:15:08;;;;;;;4.10;1.70;;;22.10;94.60;22.20;98330.00;;;;4977793;28;87526;-54
2022/06/23 10:18:01;;;;;;;4.65;1.60;;;22.10;93.70;22.30;98314.00;;;;4981557;28;87950;-56
2022/06/23 10:20:28;;;;;;;7.28;2.10;;;;;22.20;98320.00;;;;4980968;28;87752;-58
2022/06/23 10:23:15;;;;;;;5.03;1.58;;;22.20;94.80;22.30;98322.00;;;;4980291;28;87648;-55
2022/06/23 10:26:00;;;;;;;3.97;1.42;;;;;22.40;98306.00;;;;4980073;28;87093;-56
2022/06/23 10:29:00;;;;;;;4.18;1.77;;;22.30;95.90;22.50;98330.00;;;;4962477;28;87060;-57
2022/06/23 10:31:50;;;;;;;10.40;1.77;;;22.30;95.10;22.50;98314.00;;;;4980083;28;89370;-53
2022/06/23 10:34:30;;;;;;;4.07;1.63;;;22.30;94.20;22.50;98310.00;;;;4980490;28;88408;-58
2022/06/23 10:37:11;;;;;;;4.95;1.40;;;22.40;93.10;22.70;98337.00;;;;4961992;28;87047;-57
2022/06/23 10:40:02;;;;;;;5.47;1.67;;;22.40;93.30;22.60;98315.00;;;;4980545;28;87068;-55
2022/06/23 10:42:34;;;;;;;3.22;1.40;;;;;22.70;98315.00;;;;4963373;28;87768;-57
2022/06/23 10:45:41;;;;;;;2.38;1.40;;;22.50;94.40;22.70;98326.00;;;;4980264;28;87537;-58
2022/06/23 10:48:18;;;;;;;2.17;1.55;;;22.50;93.30;22.70;98306.00;;;;4972625;28;87030;-56
2022/06/23 10:51:11;;;;;;;3.22;1.60;;;22.40;94.90;22.60;98332.00;;;;4980925;28;86226;-53
2022/06/23 10:54:14;;;;;;;2.15;1.40;;;22.50;94.90;22.70;98314.00;;;;4978786;28;87810;-56
2022/06/23 10:57:05;;;;;;;8.98;1.80;;;22.50;93.30;22.70;98317.00;;;;4974039;28;88445;-58
2022/06/23 10:59:43;;;;;;;4.15;1.77;;;22.50;94.80;22.60;98338.00;;;;4962829;28;88118;-62
2022/06/23 11:02:38;;;;;;;5.10;1.80;;;22.40;94.40;22.50;98314.00;;;;4963439;28;87037;-62
2022/06/23 11:05:54;;;;;;;5.72;1.67;;;22.40;92.90;22.70;98310.00;;;;4959418;28;88979;-62
2022/06/23 11:08:29;;;;;;;6.28;1.77;;;;;22.70;98318.00;;;;4891805;28;88280;-62
2022/06/23 11:11:29;;;;;;;5.32;1.85;;;22.30;94.80;22.60;98316.00;;;;4967262;28;87153;-62
2022/06/23 11:14:43;;;;;;;8.18;1.60;;;22.50;92.20;22.70;98355.00;;;;4975777;28;87345;-62
2022/06/23 11:17:23;;;;;;;7.57;2.00;;;22.50;93.30;22.70;98343.00;;;;4985898;28;89031;-62
2022/06/23 11:20:36;;;;;;;6.75;1.95;;;22.40;93.10;22.70;98330.00;;;;4961633;28;87409;-62
2022/06/23 11:23:47;;;;;;;4.40;1.67;;;22.30;93.20;22.60;98342.00;;;;4979625;28;86967;-61
2022/06/23 11:26:44;;;;;;;2.07;1.47;;;22.60;93.20;22.80;98333.00;;;;4945179;28;88039;-54
2022/06/23 11:29:59;;;;;;;4.38;1.77;;;22.40;92.60;22.60;98334.00;;;;4946678;28;88827;-56
2022/06/23 11:33:16;;;;;;;6.53;2.20;;;22.50;95.10;22.80;98331.00;;;;4943052;28;89087;-55
2022/06/23 11:36:10;;;;;;;2.83;1.70;;;22.50;93.80;22.80;98335.00;;;;4959815;28;87125;-56
2022/06/23 11:39:31;;;;;;;4.47;2.10;;;22.80;93.30;23.00;98320.00;;;;4962746;28;86902;-54
2022/06/23 11:42:14;;;;;;;4.40;1.80;;;22.80;94.10;23.10;98314.00;;;;4926866;28;88710;-56
2022/06/23 11:44:58;;;;;;;2.88;1.95;;;;;23.10;98322.00;;;;4961983;28;87366;-56
2022/06/23 11:47:55;;;;;;;3.92;1.85;;;22.80;93.00;23.10;98323.00;;;;4962592;28;87044;-56
2022/06/23 11:50:51;;;;;;;5.38;1.52;;;23.00;92.30;23.20;98330.00;;;;4946638;28;86302;-56
2022/06/23 11:53:38;;;;;;;4.95;1.50;;;22.90;92.20;23.20;98334.00;;;;4957094;28;87656;-56
2022/06/23 11:56:43;;;;;;;4.60;1.70;;;23.00;90.30;23.10;98327.00;;;;4960418;28;88521;-56
2022/06/23 11:59:51;;;;;;;8.20;1.80;;;23.00;89.60;23.20;98346.00;;;;4951587;28;88260;-55
2022/06/23 12:02:17;;;;;;;5.82;1.60;;;;;23.10;98335.00;;;;4963705;28;87121;-55
2022/06/23 12:05:20;;;;;;;4.97;1.60;;;22.80;92.90;23.10;98338.00;;;;4962610;28;87839;-57
2022/06/23 12:08:29;;;;;;;6.03;2.08;;;22.80;92.20;23.10;98341.00;;;;4963634;28;87463;-54
2022/06/23 12:10:56;;;;;;;5.32;1.88;;;;;23.10;98344.00;;;;4964244;28;86921;-60
2022/06/23 12:13:26;;;;;;;6.32;2.35;;;22.70;90.90;22.90;98347.00;;;;4963250;28;86991;-60
2022/06/23 12:15:55;;;;;;;3.22;2.05;;;;;23.00;98340.00;;;;4961019;28;89282;-61
2022/06/23 12:18:39;;;;;;;4.60;1.95;;;22.80;92.60;23.10;98335.00;;;;4962177;28;87604;-61
2022/06/23 12:21:31;;;;;;;3.17;1.75;;;23.00;92.70;23.20;98329.00;;;;4960123;28;86995;-60
2022/06/23 12:24:19;;;;;;;2.65;1.70;;;;;23.20;98342.00;;;;4959878;28;86905;-61
2022/06/23 12:27:12;;;;;;;5.07;1.95;;;23.10;90.60;23.30;98363.00;;;;4959834;28;89943;-61
2022/06/23 12:29:51;;;;;;;4.90;1.80;;;23.10;93.20;23.20;98344.00;;;;4960995;28;89033;-61